sensor_id;sensor_type;location;lat;lon;timestamp;temperature;humidity
23744;DHT22;12052;53.478;10.182;2022-12-29T00:01:49;7.70;99.90
23744;DHT22;12052;53.478;10.182;2022-12-29T00:04:14;7.70;99.90
23744;DHT22;12052;53.478;10.182;2022-12-29T00:06:41;7.60;99.90
23744;DHT22;12052;53.478;10.182;2022-12-29T00:09:06;7.70;99.90
23744;DHT22;12052;53.478;10.182;2022-12-29T00:11:32;7.70;99.90
23744;DHT22;12052;53.478;10.182;2022-12-29T00:13:58;7.70;99.90
23744;DHT22;12052;53.478;10.182;2022-12-29T00:16:44;7.70;99.90
23744;DHT22;12052;53.478;10.182;2022-12-29T00:19:12;7.70;99.90
23744;DHT22;12052;53.478;10.182;2022-12-29T00:21:57;7.80;99.90
23744;DHT22;12052;53.478;10.182;2022-12-29T00:24:42;7.80;99.90
23744;DHT22;12052;53.478;10.182;2022-12-29T00:27:29;7.80;99.90
23744;DHT22;12052;53.478;10.182;2022-12-29T00:30:16;7.80;99.90
23744;DHT22;12052;53.478;10.182;2022-12-29T00:33:18;7.90;99.90
23744;DHT22;12052;53.478;10.182;2022-12-29T00:38:30;7.90;99.90
23744;DHT22;12052;53.478;10.182;2022-12-29T00:41:15;7.90;99.90
23744;DHT22;12052;53.478;10.182;2022-12-29T00:43:59;8.00;99.90
23744;DHT22;12052;53.478;10.182;2022-12-29T00:46:31;8.00;99.90
23744;DHT22;12052;53.478;10.182;2022-12-29T00:48:57;8.00;99.90
23744;DHT22;12052;53.478;10.182;2022-12-29T00:51:41;8.10;99.90
23744;DHT22;12052;53.478;10.182;2022-12-29T00:54:07;8.10;99.90
23744;DHT22;12052;53.478;10.182;2022-12-29T00:56:33;8.10;99.90
23744;DHT22;12052;53.478;10.182;2022-12-29T00:59:06;8.10;99.90
23744;DHT22;12052;53.478;10.182;2022-12-29T01:01:33;8.10;99.90
23744;DHT22;12052;53.478;10.182;2022-12-29T01:03:59;8.20;99.90
23744;DHT22;12052;53.478;10.182;2022-12-29T01:06:25;8.10;99.90
23744;DHT22;12052;53.478;10.182;2022-12-29T01:08:51;8.20;99.90
23744;DHT22;12052;53.478;10.182;2022-12-29T01:11:37;8.10;99.90
23744;DHT22;12052;53.478;10.182;2022-12-29T01:14:03;8.20;99.90
23744;DHT22;12052;53.478;10.182;2022-12-29T01:16:29;8.20;99.90
23744;DHT22;12052;53.478;10.182;2022-12-29T01:18:54;8.30;99.90
23744;DHT22;12052;53.478;10.182;2022-12-29T01:21:20;8.20;99.90
23744;DHT22;12052;53.478;10.182;2022-12-29T01:23:46;8.20;99.90
23744;DHT22;12052;53.478;10.182;2022-12-29T01:26:13;8.30;99.90
23744;DHT22;12052;53.478;10.182;2022-12-29T01:28:39;8.30;99.90
23744;DHT22;12052;53.478;10.182;2022-12-29T01:31:09;8.30;99.90
23744;DHT22;12052;53.478;10.182;2022-12-29T01:33:34;8.30;99.90
23744;DHT22;12052;53.478;10.182;2022-12-29T01:36:01;8.30;99.90
23744;DHT22;12052;53.478;10.182;2022-12-29T01:38:27;8.30;99.90
23744;DHT22;12052;53.478;10.182;2022-12-29T01:40:53;8.40;99.90
23744;DHT22;12052;53.478;10.182;2022-12-29T01:43:18;8.40;99.90
23744;DHT22;12052;53.478;10.182;2022-12-29T01:45:48;8.40;99.90
23744;DHT22;12052;53.478;10.182;2022-12-29T01:48:15;8.40;99.90
23744;DHT22;12052;53.478;10.182;2022-12-29T01:50:45;8.40;99.90
23744;DHT22;12052;53.478;10.182;2022-12-29T01:53:18;8.40;99.90
23744;DHT22;12052;53.478;10.182;2022-12-29T01:55:49;8.40;99.90
23744;DHT22;12052;53.478;10.182;2022-12-29T01:58:18;8.40;99.90
23744;DHT22;12052;53.478;10.182;2022-12-29T02:00:45;8.40;99.90
23744;DHT22;12052;53.478;10.182;2022-12-29T02:03:11;8.40;99.90
23744;DHT22;12052;53.478;10.182;2022-12-29T02:06:03;8.50;99.90
23744;DHT22;12052;53.478;10.182;2022-12-29T02:08:31;8.50;99.90
23744;DHT22;12052;53.478;10.182;2022-12-29T02:10:58;8.40;99.90
23744;DHT22;12052;53.478;10.182;2022-12-29T02:13:25;8.40;99.90
23744;DHT22;12052;53.478;10.182;2022-12-29T02:24:05;8.50;99.90
23744;DHT22;12052;53.478;10.182;2022-12-29T02:26:58;8.50;99.90
23744;DHT22;12052;53.478;10.182;2022-12-29T02:32:13;8.50;99.90
23744;DHT22;12052;53.478;10.182;2022-12-29T02:42:59;8.50;99.90
23744;DHT22;12052;53.478;10.182;2022-12-29T02:48:21;8.60;99.90
23744;DHT22;12052;53.478;10.182;2022-12-29T02:53:22;8.50;99.90
23744;DHT22;12052;53.478;10.182;2022-12-29T02:56:08;8.60;99.90
23744;DHT22;12052;53.478;10.182;2022-12-29T02:58:34;8.60;99.90
23744;DHT22;12052;53.478;10.182;2022-12-29T03:06:54;8.50;99.90
23744;DHT22;12052;53.478;10.182;2022-12-29T03:10:04;8.50;99.90
23744;DHT22;12052;53.478;10.182;2022-12-29T03:12:31;8.50;99.90
23744;DHT22;12052;53.478;10.182;2022-12-29T03:15:24;8.60;99.90
23744;DHT22;12052;53.478;10.182;2022-12-29T03:18:22;8.60;99.90
23744;DHT22;12052;53.478;10.182;2022-12-29T03:20:54;8.70;99.90
23744;DHT22;12052;53.478;10.182;2022-12-29T03:23:21;8.70;99.90
23744;DHT22;12052;53.478;10.182;2022-12-29T03:25:51;8.70;99.90
23744;DHT22;12052;53.478;10.182;2022-12-29T03:28:24;8.70;99.90
23744;DHT22;12052;53.478;10.182;2022-12-29T03:30:50;8.70;99.90
23744;DHT22;12052;53.478;10.182;2022-12-29T03:33:21;8.70;99.90
23744;DHT22;12052;53.478;10.182;2022-12-29T03:35:49;8.70;99.90
23744;DHT22;12052;53.478;10.182;2022-12-29T03:38:30;8.70;99.90
23744;DHT22;12052;53.478;10.182;2022-12-29T03:41:00;8.70;99.90
23744;DHT22;12052;53.478;10.182;2022-12-29T03:43:28;8.70;99.90
23744;DHT22;12052;53.478;10.182;2022-12-29T03:45:54;8.70;99.90
23744;DHT22;12052;53.478;10.182;2022-12-29T03:48:20;8.70;99.90
23744;DHT22;12052;53.478;10.182;2022-12-29T03:50:45;8.80;99.90
23744;DHT22;12052;53.478;10.182;2022-12-29T03:53:11;8.70;99.90
23744;DHT22;12052;53.478;10.182;2022-12-29T03:55:36;8.70;99.90
23744;DHT22;12052;53.478;10.182;2022-12-29T03:58:02;8.70;99.90
23744;DHT22;12052;53.478;10.182;2022-12-29T04:00:28;8.70;99.90
23744;DHT22;12052;53.478;10.182;2022-12-29T04:02:53;8.70;99.90
23744;DHT22;12052;53.478;10.182;2022-12-29T04:05:20;8.60;99.90
23744;DHT22;12052;53.478;10.182;2022-12-29T04:07:45;8.70;99.90
23744;DHT22;12052;53.478;10.182;2022-12-29T04:10:11;8.70;99.90
23744;DHT22;12052;53.478;10.182;2022-12-29T04:12:37;8.60;99.90
23744;DHT22;12052;53.478;10.182;2022-12-29T04:15:02;8.70;99.90
23744;DHT22;12052;53.478;10.182;2022-12-29T04:17:28;8.70;99.90
23744;DHT22;12052;53.478;10.182;2022-12-29T04:19:54;8.70;99.90
23744;DHT22;12052;53.478;10.182;2022-12-29T04:22:42;8.70;99.90
23744;DHT22;12052;53.478;10.182;2022-12-29T04:25:08;8.70;99.90
23744;DHT22;12052;53.478;10.182;2022-12-29T04:27:34;8.70;99.90
23744;DHT22;12052;53.478;10.182;2022-12-29T04:29:59;8.80;99.90
23744;DHT22;12052;53.478;10.182;2022-12-29T04:32:25;8.80;99.90
23744;DHT22;12052;53.478;10.182;2022-12-29T04:34:50;8.80;99.90
23744;DHT22;12052;53.478;10.182;2022-12-29T04:37:16;8.80;99.90
23744;DHT22;12052;53.478;10.182;2022-12-29T04:39:42;8.80;99.90
23744;DHT22;12052;53.478;10.182;2022-12-29T04:42:08;8.80;99.90
23744;DHT22;12052;53.478;10.182;2022-12-29T04:44:33;8.80;99.90
23744;DHT22;12052;53.478;10.182;2022-12-29T04:46:59;8.80;99.90
23744;DHT22;12052;53.478;10.182;2022-12-29T04:49:24;8.90;99.90
23744;DHT22;12052;53.478;10.182;2022-12-29T04:51:50;8.90;99.90
23744;DHT22;12052;53.478;10.182;2022-12-29T04:54:15;9.00;99.90
23744;DHT22;12052;53.478;10.182;2022-12-29T04:56:41;9.00;99.90
23744;DHT22;12052;53.478;10.182;2022-12-29T04:59:06;9.00;99.90
23744;DHT22;12052;53.478;10.182;2022-12-29T05:01:32;9.10;99.90
23744;DHT22;12052;53.478;10.182;2022-12-29T05:03:58;9.00;99.90
23744;DHT22;12052;53.478;10.182;2022-12-29T05:06:23;9.10;99.90
23744;DHT22;12052;53.478;10.182;2022-12-29T05:08:49;9.00;99.90
23744;DHT22;12052;53.478;10.182;2022-12-29T05:11:15;9.00;99.90
23744;DHT22;12052;53.478;10.182;2022-12-29T05:13:40;9.10;99.90
23744;DHT22;12052;53.478;10.182;2022-12-29T05:16:06;9.10;99.90
23744;DHT22;12052;53.478;10.182;2022-12-29T05:18:31;9.00;99.90
23744;DHT22;12052;53.478;10.182;2022-12-29T05:20:57;9.00;99.90
23744;DHT22;12052;53.478;10.182;2022-12-29T05:23:23;9.00;99.90
23744;DHT22;12052;53.478;10.182;2022-12-29T05:25:48;9.00;99.90
23744;DHT22;12052;53.478;10.182;2022-12-29T05:28:14;9.00;99.90
23744;DHT22;12052;53.478;10.182;2022-12-29T05:30:40;9.00;99.90
23744;DHT22;12052;53.478;10.182;2022-12-29T05:33:05;9.00;99.90
23744;DHT22;12052;53.478;10.182;2022-12-29T05:35:32;9.00;99.90
23744;DHT22;12052;53.478;10.182;2022-12-29T05:37:58;9.10;99.90
23744;DHT22;12052;53.478;10.182;2022-12-29T05:40:23;9.10;99.90
23744;DHT22;12052;53.478;10.182;2022-12-29T05:42:49;9.10;99.90
23744;DHT22;12052;53.478;10.182;2022-12-29T05:45:15;9.10;99.90
23744;DHT22;12052;53.478;10.182;2022-12-29T05:47:40;9.20;99.90
23744;DHT22;12052;53.478;10.182;2022-12-29T05:50:06;9.20;99.90
23744;DHT22;12052;53.478;10.182;2022-12-29T05:52:32;9.20;99.90
23744;DHT22;12052;53.478;10.182;2022-12-29T05:54:57;9.20;99.90
23744;DHT22;12052;53.478;10.182;2022-12-29T05:57:23;9.10;99.90
23744;DHT22;12052;53.478;10.182;2022-12-29T05:59:48;9.20;99.90
23744;DHT22;12052;53.478;10.182;2022-12-29T06:02:14;9.20;99.90
23744;DHT22;12052;53.478;10.182;2022-12-29T06:04:40;9.20;99.90
23744;DHT22;12052;53.478;10.182;2022-12-29T06:07:05;9.20;99.90
23744;DHT22;12052;53.478;10.182;2022-12-29T06:09:31;9.20;99.90
23744;DHT22;12052;53.478;10.182;2022-12-29T06:11:56;9.20;99.90
23744;DHT22;12052;53.478;10.182;2022-12-29T06:14:22;9.20;99.90
23744;DHT22;12052;53.478;10.182;2022-12-29T06:16:47;9.20;99.90
23744;DHT22;12052;53.478;10.182;2022-12-29T06:19:13;9.20;99.90
23744;DHT22;12052;53.478;10.182;2022-12-29T06:21:38;9.30;99.90
23744;DHT22;12052;53.478;10.182;2022-12-29T06:24:05;9.20;99.90
23744;DHT22;12052;53.478;10.182;2022-12-29T06:26:31;9.20;99.90
23744;DHT22;12052;53.478;10.182;2022-12-29T06:28:56;9.20;99.90
23744;DHT22;12052;53.478;10.182;2022-12-29T06:31:22;9.20;99.90
23744;DHT22;12052;53.478;10.182;2022-12-29T06:33:47;9.20;99.90
23744;DHT22;12052;53.478;10.182;2022-12-29T06:36:13;9.20;99.90
23744;DHT22;12052;53.478;10.182;2022-12-29T06:38:38;9.10;99.90
23744;DHT22;12052;53.478;10.182;2022-12-29T06:41:04;9.20;99.90
23744;DHT22;12052;53.478;10.182;2022-12-29T06:43:30;9.20;99.90
23744;DHT22;12052;53.478;10.182;2022-12-29T06:45:56;9.20;99.90
23744;DHT22;12052;53.478;10.182;2022-12-29T06:48:21;9.10;99.90
23744;DHT22;12052;53.478;10.182;2022-12-29T06:50:47;9.10;99.90
23744;DHT22;12052;53.478;10.182;2022-12-29T06:53:12;9.10;99.90
23744;DHT22;12052;53.478;10.182;2022-12-29T06:55:38;9.20;99.90
23744;DHT22;12052;53.478;10.182;2022-12-29T06:58:04;9.10;99.90
23744;DHT22;12052;53.478;10.182;2022-12-29T07:00:29;9.10;99.90
23744;DHT22;12052;53.478;10.182;2022-12-29T07:02:56;9.10;99.90
23744;DHT22;12052;53.478;10.182;2022-12-29T07:05:24;9.20;99.90
23744;DHT22;12052;53.478;10.182;2022-12-29T07:07:52;9.20;99.90
23744;DHT22;12052;53.478;10.182;2022-12-29T07:10:17;9.20;99.90
23744;DHT22;12052;53.478;10.182;2022-12-29T07:12:43;9.20;99.90
23744;DHT22;12052;53.478;10.182;2022-12-29T07:15:09;9.20;99.90
23744;DHT22;12052;53.478;10.182;2022-12-29T07:17:34;9.20;99.90
23744;DHT22;12052;53.478;10.182;2022-12-29T07:20:00;9.10;99.90
23744;DHT22;12052;53.478;10.182;2022-12-29T07:22:26;9.20;99.90
23744;DHT22;12052;53.478;10.182;2022-12-29T07:24:51;9.20;99.90
23744;DHT22;12052;53.478;10.182;2022-12-29T07:27:17;9.20;99.90
23744;DHT22;12052;53.478;10.182;2022-12-29T07:29:42;9.20;99.90
23744;DHT22;12052;53.478;10.182;2022-12-29T07:32:08;9.10;99.90
23744;DHT22;12052;53.478;10.182;2022-12-29T07:34:33;9.10;99.90
23744;DHT22;12052;53.478;10.182;2022-12-29T07:36:59;9.10;99.90
23744;DHT22;12052;53.478;10.182;2022-12-29T07:39:24;9.20;99.90
23744;DHT22;12052;53.478;10.182;2022-12-29T07:41:50;9.10;99.90
23744;DHT22;12052;53.478;10.182;2022-12-29T07:44:16;9.10;99.90
23744;DHT22;12052;53.478;10.182;2022-12-29T07:46:41;9.20;99.90
23744;DHT22;12052;53.478;10.182;2022-12-29T07:49:08;9.10;99.90
23744;DHT22;12052;53.478;10.182;2022-12-29T07:51:33;9.10;99.90
23744;DHT22;12052;53.478;10.182;2022-12-29T07:53:59;9.10;99.90
23744;DHT22;12052;53.478;10.182;2022-12-29T07:56:26;9.20;99.90
23744;DHT22;12052;53.478;10.182;2022-12-29T07:58:52;9.20;99.90
23744;DHT22;12052;53.478;10.182;2022-12-29T08:01:17;9.20;99.90
23744;DHT22;12052;53.478;10.182;2022-12-29T08:03:43;9.20;99.90
23744;DHT22;12052;53.478;10.182;2022-12-29T08:06:10;9.10;99.90
23744;DHT22;12052;53.478;10.182;2022-12-29T08:08:36;9.20;99.90
23744;DHT22;12052;53.478;10.182;2022-12-29T08:11:01;9.10;99.90
23744;DHT22;12052;53.478;10.182;2022-12-29T08:13:27;9.10;99.90
23744;DHT22;12052;53.478;10.182;2022-12-29T08:15:52;9.10;99.90
23744;DHT22;12052;53.478;10.182;2022-12-29T08:18:18;9.10;99.90
23744;DHT22;12052;53.478;10.182;2022-12-29T08:20:43;9.10;99.90
23744;DHT22;12052;53.478;10.182;2022-12-29T08:23:09;9.20;99.90
23744;DHT22;12052;53.478;10.182;2022-12-29T08:25:35;9.10;99.90
23744;DHT22;12052;53.478;10.182;2022-12-29T08:28:01;9.10;99.90
23744;DHT22;12052;53.478;10.182;2022-12-29T08:30:26;9.10;99.90
23744;DHT22;12052;53.478;10.182;2022-12-29T08:32:52;9.10;99.90
23744;DHT22;12052;53.478;10.182;2022-12-29T08:35:17;9.10;99.90
23744;DHT22;12052;53.478;10.182;2022-12-29T08:37:43;9.10;99.90
23744;DHT22;12052;53.478;10.182;2022-12-29T08:40:09;9.10;99.90
23744;DHT22;12052;53.478;10.182;2022-12-29T08:42:35;9.00;99.90
23744;DHT22;12052;53.478;10.182;2022-12-29T08:45:00;9.00;99.90
23744;DHT22;12052;53.478;10.182;2022-12-29T08:47:26;9.00;99.90
23744;DHT22;12052;53.478;10.182;2022-12-29T08:49:53;9.00;99.90
23744;DHT22;12052;53.478;10.182;2022-12-29T08:52:19;9.10;99.90
23744;DHT22;12052;53.478;10.182;2022-12-29T08:54:45;9.10;99.90
23744;DHT22;12052;53.478;10.182;2022-12-29T08:57:11;9.10;99.90
23744;DHT22;12052;53.478;10.182;2022-12-29T08:59:36;9.20;99.90
23744;DHT22;12052;53.478;10.182;2022-12-29T09:02:02;9.30;99.90
23744;DHT22;12052;53.478;10.182;2022-12-29T09:04:28;9.30;99.90
23744;DHT22;12052;53.478;10.182;2022-12-29T09:06:54;9.30;99.90
23744;DHT22;12052;53.478;10.182;2022-12-29T09:09:20;9.30;99.90
23744;DHT22;12052;53.478;10.182;2022-12-29T09:11:46;9.30;99.90
23744;DHT22;12052;53.478;10.182;2022-12-29T09:14:12;9.20;99.90
23744;DHT22;12052;53.478;10.182;2022-12-29T09:16:38;9.20;99.90
23744;DHT22;12052;53.478;10.182;2022-12-29T09:19:04;9.10;99.90
23744;DHT22;12052;53.478;10.182;2022-12-29T09:21:30;9.10;99.90
23744;DHT22;12052;53.478;10.182;2022-12-29T09:23:56;9.10;99.90
23744;DHT22;12052;53.478;10.182;2022-12-29T09:26:22;9.00;99.90
23744;DHT22;12052;53.478;10.182;2022-12-29T09:28:47;9.00;99.90
23744;DHT22;12052;53.478;10.182;2022-12-29T09:31:13;9.00;99.90
23744;DHT22;12052;53.478;10.182;2022-12-29T09:33:39;9.10;99.90
23744;DHT22;12052;53.478;10.182;2022-12-29T09:36:05;9.10;99.90
23744;DHT22;12052;53.478;10.182;2022-12-29T09:38:30;9.00;99.90
23744;DHT22;12052;53.478;10.182;2022-12-29T09:43:43;9.00;99.90
23744;DHT22;12052;53.478;10.182;2022-12-29T09:46:25;9.00;99.90
23744;DHT22;12052;53.478;10.182;2022-12-29T09:51:31;9.10;99.90
23744;DHT22;12052;53.478;10.182;2022-12-29T09:54:02;9.10;99.90
23744;DHT22;12052;53.478;10.182;2022-12-29T09:56:29;9.00;99.90
23744;DHT22;12052;53.478;10.182;2022-12-29T09:59:02;9.10;99.90
23744;DHT22;12052;53.478;10.182;2022-12-29T10:01:34;9.10;99.90
23744;DHT22;12052;53.478;10.182;2022-12-29T10:04:02;9.10;99.90
23744;DHT22;12052;53.478;10.182;2022-12-29T10:06:57;9.10;99.90
23744;DHT22;12052;53.478;10.182;2022-12-29T10:14:53;9.10;99.90
23744;DHT22;12052;53.478;10.182;2022-12-29T10:17:44;9.10;99.90
23744;DHT22;12052;53.478;10.182;2022-12-29T10:25:38;9.30;99.90
23744;DHT22;12052;53.478;10.182;2022-12-29T10:28:10;9.30;99.90
23744;DHT22;12052;53.478;10.182;2022-12-29T10:30:41;9.30;99.90
23744;DHT22;12052;53.478;10.182;2022-12-29T10:33:14;9.30;99.90
23744;DHT22;12052;53.478;10.182;2022-12-29T10:35:41;9.20;99.90
23744;DHT22;12052;53.478;10.182;2022-12-29T10:38:19;9.30;99.90
23744;DHT22;12052;53.478;10.182;2022-12-29T10:43:30;9.40;99.90
23744;DHT22;12052;53.478;10.182;2022-12-29T10:46:05;9.50;99.90
23744;DHT22;12052;53.478;10.182;2022-12-29T10:48:34;9.50;99.90
23744;DHT22;12052;53.478;10.182;2022-12-29T10:51:02;9.50;99.90
23744;DHT22;12052;53.478;10.182;2022-12-29T10:53:40;9.50;99.90
23744;DHT22;12052;53.478;10.182;2022-12-29T10:56:32;9.50;99.90
23744;DHT22;12052;53.478;10.182;2022-12-29T10:59:25;9.60;99.90
23744;DHT22;12052;53.478;10.182;2022-12-29T11:02:00;9.60;99.90
23744;DHT22;12052;53.478;10.182;2022-12-29T11:04:52;9.60;99.90
23744;DHT22;12052;53.478;10.182;2022-12-29T11:07:20;9.60;99.90
23744;DHT22;12052;53.478;10.182;2022-12-29T11:09:47;9.60;99.90
23744;DHT22;12052;53.478;10.182;2022-12-29T11:12:28;9.60;99.90
23744;DHT22;12052;53.478;10.182;2022-12-29T11:17:50;9.60;99.90
23744;DHT22;12052;53.478;10.182;2022-12-29T11:22:45;9.70;99.90
23744;DHT22;12052;53.478;10.182;2022-12-29T11:25:12;9.70;99.90
23744;DHT22;12052;53.478;10.182;2022-12-29T11:27:38;9.70;99.90
23744;DHT22;12052;53.478;10.182;2022-12-29T11:30:26;9.70;99.90
23744;DHT22;12052;53.478;10.182;2022-12-29T11:32:53;9.60;99.90
23744;DHT22;12052;53.478;10.182;2022-12-29T11:37:59;9.50;99.90
23744;DHT22;12052;53.478;10.182;2022-12-29T11:40:26;9.50;99.90
23744;DHT22;12052;53.478;10.182;2022-12-29T11:43:00;9.40;99.90
23744;DHT22;12052;53.478;10.182;2022-12-29T11:45:34;9.40;99.90
23744;DHT22;12052;53.478;10.182;2022-12-29T11:48:07;9.50;99.90
23744;DHT22;12052;53.478;10.182;2022-12-29T11:50:39;9.40;99.90
23744;DHT22;12052;53.478;10.182;2022-12-29T11:56:03;9.50;99.90
23744;DHT22;12052;53.478;10.182;2022-12-29T11:58:32;9.50;99.90
23744;DHT22;12052;53.478;10.182;2022-12-29T12:01:13;9.40;99.90
23744;DHT22;12052;53.478;10.182;2022-12-29T12:03:46;9.40;99.90
23744;DHT22;12052;53.478;10.182;2022-12-29T12:06:16;9.40;99.90
23744;DHT22;12052;53.478;10.182;2022-12-29T12:08:55;9.40;99.90
23744;DHT22;12052;53.478;10.182;2022-12-29T12:11:29;9.40;99.90
23744;DHT22;12052;53.478;10.182;2022-12-29T12:14:06;9.30;99.90
23744;DHT22;12052;53.478;10.182;2022-12-29T12:16:46;9.30;99.90
23744;DHT22;12052;53.478;10.182;2022-12-29T12:19:23;9.30;99.90
23744;DHT22;12052;53.478;10.182;2022-12-29T12:21:56;9.20;99.90
23744;DHT22;12052;53.478;10.182;2022-12-29T12:24:36;9.20;99.90
23744;DHT22;12052;53.478;10.182;2022-12-29T12:27:18;9.20;99.90
23744;DHT22;12052;53.478;10.182;2022-12-29T12:29:52;9.20;99.90
23744;DHT22;12052;53.478;10.182;2022-12-29T12:35:12;9.30;99.90
23744;DHT22;12052;53.478;10.182;2022-12-29T12:51:47;9.50;99.90
23744;DHT22;12052;53.478;10.182;2022-12-29T12:54:46;9.50;99.90
23744;DHT22;12052;53.478;10.182;2022-12-29T13:08:12;9.60;99.90
23744;DHT22;12052;53.478;10.182;2022-12-29T13:16:29;9.70;99.90
23744;DHT22;12052;53.478;10.182;2022-12-29T13:19:06;9.70;99.90
23744;DHT22;12052;53.478;10.182;2022-12-29T13:27:30;9.70;99.90
23744;DHT22;12052;53.478;10.182;2022-12-29T13:35:50;9.80;99.90
23744;DHT22;12052;53.478;10.182;2022-12-29T13:38:32;9.80;99.90
23744;DHT22;12052;53.478;10.182;2022-12-29T13:41:03;9.80;99.90
23744;DHT22;12052;53.478;10.182;2022-12-29T13:43:31;9.90;99.90
23744;DHT22;12052;53.478;10.182;2022-12-29T13:46:07;9.90;99.90
23744;DHT22;12052;53.478;10.182;2022-12-29T13:48:47;9.90;99.90
23744;DHT22;12052;53.478;10.182;2022-12-29T13:51:15;9.90;99.90
23744;DHT22;12052;53.478;10.182;2022-12-29T13:56:56;9.90;99.90
23744;DHT22;12052;53.478;10.182;2022-12-29T13:59:45;9.80;99.90
23744;DHT22;12052;53.478;10.182;2022-12-29T14:02:37;9.70;99.90
23744;DHT22;12052;53.478;10.182;2022-12-29T14:07:46;9.70;99.90
23744;DHT22;12052;53.478;10.182;2022-12-29T14:10:35;9.70;99.90
23744;DHT22;12052;53.478;10.182;2022-12-29T14:15:38;9.70;99.90
23744;DHT22;12052;53.478;10.182;2022-12-29T14:18:19;9.60;99.90
23744;DHT22;12052;53.478;10.182;2022-12-29T14:21:08;9.60;99.90
23744;DHT22;12052;53.478;10.182;2022-12-29T14:23:41;9.50;99.90
23744;DHT22;12052;53.478;10.182;2022-12-29T14:28:38;9.40;99.90
23744;DHT22;12052;53.478;10.182;2022-12-29T14:31:32;9.30;99.90
23744;DHT22;12052;53.478;10.182;2022-12-29T14:36:54;9.20;99.90
23744;DHT22;12052;53.478;10.182;2022-12-29T14:39:41;9.20;99.90
23744;DHT22;12052;53.478;10.182;2022-12-29T14:42:12;9.20;99.90
23744;DHT22;12052;53.478;10.182;2022-12-29T14:47:22;9.10;99.90
23744;DHT22;12052;53.478;10.182;2022-12-29T14:49:51;9.20;99.90
23744;DHT22;12052;53.478;10.182;2022-12-29T14:52:23;9.10;99.90
23744;DHT22;12052;53.478;10.182;2022-12-29T14:54:52;9.00;99.90
23744;DHT22;12052;53.478;10.182;2022-12-29T14:57:41;8.90;99.90
23744;DHT22;12052;53.478;10.182;2022-12-29T15:00:34;8.80;99.90
23744;DHT22;12052;53.478;10.182;2022-12-29T15:03:14;8.70;99.90
23744;DHT22;12052;53.478;10.182;2022-12-29T15:06:11;8.60;99.90
23744;DHT22;12052;53.478;10.182;2022-12-29T15:08:42;8.60;99.90
23744;DHT22;12052;53.478;10.182;2022-12-29T15:11:17;8.50;99.90
23744;DHT22;12052;53.478;10.182;2022-12-29T15:13:44;8.50;99.90
23744;DHT22;12052;53.478;10.182;2022-12-29T15:16:29;8.40;99.90
23744;DHT22;12052;53.478;10.182;2022-12-29T15:18:55;8.30;99.90
23744;DHT22;12052;53.478;10.182;2022-12-29T15:21:33;8.30;99.90
23744;DHT22;12052;53.478;10.182;2022-12-29T15:23:59;8.20;99.90
23744;DHT22;12052;53.478;10.182;2022-12-29T15:26:37;8.20;99.90
23744;DHT22;12052;53.478;10.182;2022-12-29T15:29:03;8.20;99.90
23744;DHT22;12052;53.478;10.182;2022-12-29T15:31:29;8.20;99.90
23744;DHT22;12052;53.478;10.182;2022-12-29T15:34:03;8.20;99.90
23744;DHT22;12052;53.478;10.182;2022-12-29T15:36:37;8.20;99.90
23744;DHT22;12052;53.478;10.182;2022-12-29T15:39:29;8.20;99.90
23744;DHT22;12052;53.478;10.182;2022-12-29T15:45:05;8.20;99.90
23744;DHT22;12052;53.478;10.182;2022-12-29T15:47:31;8.20;99.90
23744;DHT22;12052;53.478;10.182;2022-12-29T15:50:08;8.20;99.90
23744;DHT22;12052;53.478;10.182;2022-12-29T15:52:35;8.20;99.90
23744;DHT22;12052;53.478;10.182;2022-12-29T15:55:04;8.20;99.90
23744;DHT22;12052;53.478;10.182;2022-12-29T15:57:36;8.20;99.90
23744;DHT22;12052;53.478;10.182;2022-12-29T16:00:03;8.30;99.90
23744;DHT22;12052;53.478;10.182;2022-12-29T16:02:29;8.30;99.90
23744;DHT22;12052;53.478;10.182;2022-12-29T16:04:55;8.20;99.90
23744;DHT22;12052;53.478;10.182;2022-12-29T16:07:28;8.20;99.90
23744;DHT22;12052;53.478;10.182;2022-12-29T16:09:56;8.20;99.90
23744;DHT22;12052;53.478;10.182;2022-12-29T16:12:31;8.30;99.90
23744;DHT22;12052;53.478;10.182;2022-12-29T16:15:03;8.30;99.90
23744;DHT22;12052;53.478;10.182;2022-12-29T16:17:32;8.20;99.90
23744;DHT22;12052;53.478;10.182;2022-12-29T16:20:05;8.20;99.90
23744;DHT22;12052;53.478;10.182;2022-12-29T16:22:41;8.20;99.90
23744;DHT22;12052;53.478;10.182;2022-12-29T16:25:29;8.30;99.90
23744;DHT22;12052;53.478;10.182;2022-12-29T16:27:58;8.30;99.90
23744;DHT22;12052;53.478;10.182;2022-12-29T16:30:27;8.30;99.90
23744;DHT22;12052;53.478;10.182;2022-12-29T16:32:55;8.30;99.90
23744;DHT22;12052;53.478;10.182;2022-12-29T16:38:18;8.40;99.90
23744;DHT22;12052;53.478;10.182;2022-12-29T16:40:53;8.40;99.90
23744;DHT22;12052;53.478;10.182;2022-12-29T16:48:19;8.30;99.90
23744;DHT22;12052;53.478;10.182;2022-12-29T16:50:45;8.30;99.90
23744;DHT22;12052;53.478;10.182;2022-12-29T16:53:26;8.30;99.90
23744;DHT22;12052;53.478;10.182;2022-12-29T16:55:54;8.20;99.90
23744;DHT22;12052;53.478;10.182;2022-12-29T16:58:24;8.20;99.90
23744;DHT22;12052;53.478;10.182;2022-12-29T17:00:53;8.20;99.90
23744;DHT22;12052;53.478;10.182;2022-12-29T17:03:20;8.20;99.90
23744;DHT22;12052;53.478;10.182;2022-12-29T17:05:46;8.20;99.90
23744;DHT22;12052;53.478;10.182;2022-12-29T17:08:20;8.20;99.90
23744;DHT22;12052;53.478;10.182;2022-12-29T17:10:52;8.30;99.90
23744;DHT22;12052;53.478;10.182;2022-12-29T17:13:38;8.30;99.90
23744;DHT22;12052;53.478;10.182;2022-12-29T17:16:05;8.20;99.90
23744;DHT22;12052;53.478;10.182;2022-12-29T17:18:33;8.20;99.90
23744;DHT22;12052;53.478;10.182;2022-12-29T17:20:58;8.20;99.90
23744;DHT22;12052;53.478;10.182;2022-12-29T17:23:24;8.20;99.90
23744;DHT22;12052;53.478;10.182;2022-12-29T17:25:50;8.10;99.90
23744;DHT22;12052;53.478;10.182;2022-12-29T17:28:29;8.10;99.90
23744;DHT22;12052;53.478;10.182;2022-12-29T17:31:04;8.10;99.90
23744;DHT22;12052;53.478;10.182;2022-12-29T17:33:35;8.10;99.90
23744;DHT22;12052;53.478;10.182;2022-12-29T17:36:01;8.10;99.90
23744;DHT22;12052;53.478;10.182;2022-12-29T17:38:33;8.00;99.90
23744;DHT22;12052;53.478;10.182;2022-12-29T17:40:59;8.00;99.90
23744;DHT22;12052;53.478;10.182;2022-12-29T17:43:25;8.00;99.90
23744;DHT22;12052;53.478;10.182;2022-12-29T17:45:56;7.90;99.90
23744;DHT22;12052;53.478;10.182;2022-12-29T17:48:23;7.90;99.90
23744;DHT22;12052;53.478;10.182;2022-12-29T17:50:50;7.90;99.90
23744;DHT22;12052;53.478;10.182;2022-12-29T17:53:22;7.90;99.90
23744;DHT22;12052;53.478;10.182;2022-12-29T17:55:48;7.90;99.90
23744;DHT22;12052;53.478;10.182;2022-12-29T17:58:17;7.90;99.90
23744;DHT22;12052;53.478;10.182;2022-12-29T18:00:43;7.90;99.90
23744;DHT22;12052;53.478;10.182;2022-12-29T18:03:30;7.90;99.90
23744;DHT22;12052;53.478;10.182;2022-12-29T18:05:56;7.90;99.90